»·PEaware :: PH-TIM KPSP-KSNA

PH-TIM :: KPSP-KSNA

FLIGHT INFORMATION

Flight Status: Arrived
Operator: Privately registered:
Netherlands
More flights under this callsign
Pilot: Tim P. (6337)
Aircraft: CESSNA 172 SKYHAWK
(C172)
More flights by this aircraft type
Origin: KPSP Palm Springs Intl
United States
Destination: KSNA John Wayne-Orange Co
United States
More flights between these airports :: More routes between these airports
Route: +CATH1 PSP V388 ACINS V283 SLI
File this flight plan on PilotEdge
Remarks:
Altitude:
(Current/Filed)
10,000ft
Speed:
(Current/Filed)
0kts
Departed: 04-Jul-18 12:08 PM
Arrived: 04-Jul-18 01:19 PM
Distance/Time
Traveled:
69nm/1:11
Distance/Time
To Go:
Arrived

Flight Plot

Page will automatically refresh every two minutes.


Map Options




Map Legend


Flown Route
Filed Route
Departure Airport
Arrival Airport
Navaid (VOR, NDB)
Fix

Horizontal Profiles

Position Reports

Time Latitude Longitude Heading Altitude Ground
Speed
04-Jul-18 11:33 33.823398 -116.497547 55 481ft 0kts
04-Jul-18 11:34 33.823398 -116.497547 55 481ft 0kts
04-Jul-18 11:35 33.823398 -116.497547 55 481ft 0kts
04-Jul-18 11:36 33.823398 -116.497547 55 481ft 0kts
04-Jul-18 11:37 33.823398 -116.497547 55 481ft 0kts
04-Jul-18 11:38 33.823398 -116.497547 55 481ft 0kts
04-Jul-18 11:39 33.823398 -116.497547 55 481ft 0kts
04-Jul-18 11:40 33.823398 -116.497547 55 481ft 0kts
04-Jul-18 11:41 33.823398 -116.497547 55 481ft 0kts
04-Jul-18 11:42 33.823398 -116.497547 55 481ft 0kts
04-Jul-18 11:43 33.823398 -116.497547 55 481ft 0kts
04-Jul-18 11:44 33.823398 -116.497547 55 481ft 0kts
04-Jul-18 11:45 33.823398 -116.497547 55 481ft 0kts
04-Jul-18 11:46 33.823398 -116.497547 55 481ft 0kts
04-Jul-18 11:47 33.823398 -116.497547 55 481ft 0kts
04-Jul-18 11:48 33.823398 -116.497547 55 481ft 0kts
04-Jul-18 11:49 33.823398 -116.497547 55 481ft 0kts
04-Jul-18 11:50 33.823398 -116.497547 55 481ft 0kts
04-Jul-18 11:51 33.823398 -116.497547 55 481ft 0kts
04-Jul-18 11:52 33.823398 -116.497547 55 481ft 0kts
04-Jul-18 11:53 33.823398 -116.497547 55 481ft 0kts
04-Jul-18 11:54 33.823398 -116.497547 55 481ft 0kts
04-Jul-18 11:55 33.823398 -116.497547 55 481ft 0kts
04-Jul-18 11:56 33.823398 -116.497547 55 481ft 0kts
04-Jul-18 11:57 33.823398 -116.497547 55 481ft 0kts
04-Jul-18 11:58 33.823398 -116.497547 55 481ft 0kts
04-Jul-18 11:59 33.823398 -116.497547 55 481ft 0kts
04-Jul-18 12:00 33.823398 -116.497547 55 481ft 0kts
04-Jul-18 12:01 33.823398 -116.497547 55 481ft 0kts
04-Jul-18 12:02 33.823398 -116.497547 55 481ft 0kts
04-Jul-18 12:03 33.824844 -116.498799 279 481ft 10kts
04-Jul-18 12:04 33.824610 -116.499594 234 481ft 0kts
04-Jul-18 12:05 33.824610 -116.499594 234 481ft 0kts
04-Jul-18 12:06 33.824610 -116.499594 234 481ft 0kts
04-Jul-18 12:07 33.824610 -116.499594 234 481ft 0kts
04-Jul-18 12:08 33.831047 -116.505986 326 612ft 76kts
04-Jul-18 12:09 33.847703 -116.522135 321 1270ft 78kts
04-Jul-18 12:10 33.862933 -116.539481 317 1909ft 83kts
04-Jul-18 12:11 33.878824 -116.559479 313 2588ft 83kts
04-Jul-18 12:12 33.894554 -116.580356 319 3220ft 85kts
04-Jul-18 12:13 33.902242 -116.571218 111 3838ft 72kts
04-Jul-18 12:14 33.895712 -116.548185 103 4432ft 74kts
04-Jul-18 12:15 33.889099 -116.524627 108 5016ft 74kts
04-Jul-18 12:16 33.884674 -116.500141 97 5579ft 75kts
04-Jul-18 12:17 33.882412 -116.475721 55 6116ft 81kts
04-Jul-18 12:18 33.900935 -116.484906 274 6611ft 92kts
04-Jul-18 12:19 33.905811 -116.515179 276 7090ft 94kts
04-Jul-18 12:20 33.911172 -116.545986 279 7559ft 94kts
04-Jul-18 12:21 33.916976 -116.576735 278 8013ft 94kts
04-Jul-18 12:22 33.923078 -116.607767 277 8456ft 95kts
04-Jul-18 12:23 33.929247 -116.638736 278 8891ft 95kts
04-Jul-18 12:24 33.934542 -116.667127 278 9280ft 95kts
04-Jul-18 12:25 33.941588 -116.697790 275 9703ft 94kts
04-Jul-18 12:26 33.946024 -116.729277 270 10017ft 105kts
04-Jul-18 12:27 33.951191 -116.766024 259 10062ft 109kts
04-Jul-18 12:28 33.947276 -116.802160 266 9999ft 109kts
04-Jul-18 12:29 33.941366 -116.835539 233 9970ft 103kts
04-Jul-18 12:30 33.928026 -116.866365 237 9927ft 103kts
04-Jul-18 12:31 33.914338 -116.896622 234 9879ft 102kts
04-Jul-18 12:32 33.899394 -116.925713 232 9929ft 101kts
04-Jul-18 12:34 33.885041 -116.955079 239 9982ft 103kts
04-Jul-18 12:35 33.874791 -116.987417 231 10026ft 102kts
04-Jul-18 12:36 33.857703 -117.014076 235 10086ft 101kts
04-Jul-18 12:37 33.843627 -117.043483 237 10128ft 102kts
04-Jul-18 12:38 33.828183 -117.071453 232 10178ft 101kts
04-Jul-18 12:39 33.815470 -117.101665 236 10240ft 100kts
04-Jul-18 12:40 33.803640 -117.130524 245 10280ft 101kts
04-Jul-18 12:41 33.792551 -117.160967 230 10323ft 99kts
04-Jul-18 12:42 33.773405 -117.186946 218 10212ft 107kts
04-Jul-18 12:43 33.756477 -117.215041 231 9669ft 102kts
04-Jul-18 12:44 33.740184 -117.243043 234 9034ft 102kts
04-Jul-18 12:45 33.724429 -117.271485 231 8412ft 101kts
04-Jul-18 12:46 33.709773 -117.297607 233 8098ft 100kts
04-Jul-18 12:47 33.694237 -117.326092 235 8105ft 104kts
04-Jul-18 12:48 33.678356 -117.354846 232 8208ft 104kts
04-Jul-18 12:49 33.662949 -117.383913 234 8317ft 103kts
04-Jul-18 12:50 33.645946 -117.413866 237 8260ft 107kts
04-Jul-18 12:51 33.629337 -117.445591 237 8090ft 112kts
04-Jul-18 12:52 33.612636 -117.477392 235 7932ft 112kts
04-Jul-18 12:53 33.600117 -117.509860 282 7894ft 112kts
04-Jul-18 12:54 33.609703 -117.544010 290 8099ft 108kts
04-Jul-18 12:55 33.618461 -117.573861 286 8139ft 110kts
04-Jul-18 12:56 33.631117 -117.606892 301 8219ft 111kts
04-Jul-18 12:57 33.634419 -117.643236 272 8151ft 113kts
04-Jul-18 12:58 33.639686 -117.675729 276 8086ft 114kts
04-Jul-18 12:59 33.652401 -117.709304 303 7964ft 110kts
04-Jul-18 13:00 33.671087 -117.737337 304 7948ft 108kts
04-Jul-18 13:01 33.688386 -117.765649 302 8086ft 105kts
04-Jul-18 13:02 33.705975 -117.793385 311 8198ft 106kts
04-Jul-18 13:03 33.725106 -117.821056 302 7967ft 109kts
04-Jul-18 13:04 33.742170 -117.852170 300 7301ft 113kts
04-Jul-18 13:05 33.759074 -117.883999 305 6633ft 113kts
04-Jul-18 13:06 33.785926 -117.893512 27 5903ft 121kts
04-Jul-18 13:07 33.815360 -117.872798 27 5173ft 120kts
04-Jul-18 13:08 33.844976 -117.854258 25 4501ft 120kts
04-Jul-18 13:09 33.874077 -117.836691 25 4047ft 113kts
04-Jul-18 13:10 33.885155 -117.807165 90 4007ft 110kts
04-Jul-18 13:11 33.879486 -117.772995 155 4129ft 107kts
04-Jul-18 13:12 33.848378 -117.773648 183 3595ft 113kts
04-Jul-18 13:13 33.819497 -117.780824 210 3041ft 100kts
04-Jul-18 13:14 33.794870 -117.793838 210 2584ft 96kts
04-Jul-18 13:15 33.771378 -117.808814 208 2079ft 95kts
04-Jul-18 13:16 33.747805 -117.823490 210 1555ft 95kts
04-Jul-18 13:17 33.725402 -117.837709 208 1058ft 95kts
04-Jul-18 13:18 33.703082 -117.851692 210 589ft 76kts
04-Jul-18 13:19 33.686816 -117.861757 209 235ft 63kts
04-Jul-18 13:20 33.675785 -117.868950 250 60ft 14kts
04-Jul-18 13:21 33.674712 -117.871782 157 60ft 10kts
04-Jul-18 13:22 33.674406 -117.871997 300 60ft 0kts
04-Jul-18 13:23 33.674406 -117.871997 300 60ft 0kts
04-Jul-18 13:24 33.674406 -117.871997 300 60ft 0kts

Navigation Log

Ident Type
Flight plan parsing failed, navigation log unavailable